createdAt,value
2022-07-26T00:00:17.842Z,44.60
2022-07-26T00:02:47.619Z,44.56
2022-07-26T00:05:16.533Z,44.79
2022-07-26T00:07:44.259Z,44.57
2022-07-26T00:10:12.014Z,44.48
2022-07-26T00:12:39.892Z,44.23
2022-07-26T00:15:08.728Z,44.61
2022-07-26T00:17:36.548Z,44.62
2022-07-26T00:20:06.904Z,44.68
2022-07-26T00:22:39.724Z,44.43
2022-07-26T00:25:08.650Z,44.55
2022-07-26T00:27:37.588Z,44.57
2022-07-26T00:30:06.612Z,44.45
2022-07-26T00:32:34.347Z,44.56
2022-07-26T00:35:02.067Z,44.43
2022-07-26T00:37:31.129Z,44.50
2022-07-26T00:39:58.819Z,44.47
2022-07-26T00:42:26.552Z,44.51
2022-07-26T00:44:54.260Z,44.38
2022-07-26T00:47:21.998Z,44.82
2022-07-26T00:49:49.697Z,44.57
2022-07-26T00:52:17.588Z,44.53
2022-07-26T00:54:46.705Z,44.25
2022-07-26T00:57:14.971Z,44.27
2022-07-26T00:59:42.752Z,44.39
2022-07-26T01:02:10.723Z,44.74
2022-07-26T01:04:38.517Z,44.53
2022-07-26T01:07:15.050Z,44.50
2022-07-26T01:09:43.376Z,44.53
2022-07-26T01:12:12.801Z,44.27
2022-07-26T01:14:43.345Z,44.49
2022-07-26T01:17:11.104Z,44.54
2022-07-26T01:19:38.815Z,44.30
2022-07-26T01:22:12.435Z,44.33
2022-07-26T01:24:41.962Z,44.29
2022-07-26T01:27:09.708Z,44.57
2022-07-26T01:29:37.525Z,44.32
2022-07-26T01:32:05.599Z,44.43
2022-07-26T01:34:33.292Z,44.29
2022-07-26T01:37:01.058Z,44.41
2022-07-26T01:39:30.100Z,44.33
2022-07-26T01:41:57.837Z,44.24
2022-07-26T01:44:25.605Z,44.00
2022-07-26T01:46:53.362Z,44.26
2022-07-26T01:49:21.120Z,44.50
2022-07-26T01:51:48.905Z,44.26
2022-07-26T01:54:22.339Z,44.15
2022-07-26T01:56:53.643Z,44.50
2022-07-26T01:59:21.339Z,44.46
2022-07-26T02:01:49.142Z,44.27
2022-07-26T02:04:30.844Z,44.15
2022-07-26T02:06:58.901Z,44.36
2022-07-26T02:09:26.598Z,44.09
2022-07-26T02:11:58.446Z,44.45
2022-07-26T02:14:28.023Z,44.29
2022-07-26T02:16:59.909Z,44.55
2022-07-26T02:19:28.095Z,44.69
2022-07-26T02:21:55.849Z,44.58
2022-07-26T02:24:23.592Z,44.15
2022-07-26T02:26:51.317Z,44.50
2022-07-26T02:29:20.360Z,44.35
2022-07-26T02:31:48.257Z,44.50
2022-07-26T02:34:16.987Z,44.57
2022-07-26T02:36:44.870Z,44.78
2022-07-26T02:39:12.673Z,44.46
2022-07-26T02:41:40.486Z,44.63
2022-07-26T02:44:09.014Z,44.71
2022-07-26T02:46:38.558Z,44.84
2022-07-26T02:49:06.414Z,44.80
2022-07-26T02:51:34.453Z,44.97
2022-07-26T02:54:02.178Z,44.91
2022-07-26T02:56:29.913Z,44.82
2022-07-26T02:58:57.629Z,44.75
2022-07-26T03:01:25.383Z,44.94
2022-07-26T03:03:54.489Z,45.02
2022-07-26T03:06:22.204Z,45.08
2022-07-26T03:08:50.137Z,45.02
2022-07-26T03:11:17.933Z,44.94
2022-07-26T03:13:45.648Z,45.03
2022-07-26T03:16:13.442Z,45.01
2022-07-26T03:18:41.194Z,45.17
2022-07-26T03:21:10.432Z,45.16
2022-07-26T03:23:38.130Z,45.25
2022-07-26T03:26:05.969Z,44.83
2022-07-26T03:28:34.373Z,45.02
2022-07-26T03:31:02.220Z,45.14
2022-07-26T03:33:30.227Z,44.86
2022-07-26T03:35:57.987Z,45.24
2022-07-26T03:38:27.097Z,45.36
2022-07-26T03:40:54.834Z,45.21
2022-07-26T03:43:23.395Z,45.13
2022-07-26T03:45:51.348Z,45.07
2022-07-26T03:48:22.400Z,45.27
2022-07-26T03:50:50.114Z,44.83
2022-07-26T03:53:17.841Z,45.08
2022-07-26T03:56:04.451Z,45.00
2022-07-26T03:58:32.203Z,45.29
2022-07-26T04:01:00.006Z,45.05
2022-07-26T04:03:27.820Z,45.26
2022-07-26T04:05:56.061Z,45.14
2022-07-26T04:08:23.881Z,45.19
2022-07-26T04:10:52.945Z,44.96
2022-07-26T04:13:20.777Z,45.21
2022-07-26T04:15:48.607Z,45.04
2022-07-26T04:18:16.354Z,45.03
2022-07-26T04:20:44.220Z,44.94
2022-07-26T04:23:12.466Z,45.16
2022-07-26T04:25:41.362Z,45.17
2022-07-26T04:28:10.739Z,45.17
2022-07-26T04:30:38.523Z,45.12
2022-07-26T04:33:06.314Z,45.19
2022-07-26T04:35:34.068Z,45.06
2022-07-26T04:38:02.034Z,45.22
2022-07-26T04:40:33.413Z,45.31
2022-07-26T04:43:01.267Z,45.17
2022-07-26T04:45:30.382Z,45.34
2022-07-26T04:47:58.161Z,45.08
2022-07-26T04:50:25.985Z,45.23
2022-07-26T04:52:53.717Z,45.13
2022-07-26T04:55:21.519Z,45.14
2022-07-26T04:57:49.552Z,45.20
2022-07-26T05:00:23.000Z,45.58
2022-07-26T05:02:54.594Z,45.51
2022-07-26T05:05:22.924Z,45.65
2022-07-26T05:07:52.527Z,45.54
2022-07-26T05:10:21.621Z,45.84
2022-07-26T05:12:49.570Z,45.92
2022-07-26T05:15:17.265Z,45.77
2022-07-26T05:17:45.039Z,45.88
2022-07-26T05:20:15.889Z,46.08
2022-07-26T05:22:43.714Z,45.89
2022-07-26T05:25:11.418Z,45.88
2022-07-26T05:27:40.659Z,46.17
2022-07-26T05:30:09.879Z,46.10
2022-07-26T05:32:37.727Z,46.56
2022-07-26T05:35:06.306Z,47.12
2022-07-26T05:37:35.536Z,47.53
2022-07-26T05:40:03.284Z,48.18
2022-07-26T05:42:31.028Z,48.61
2022-07-26T05:44:58.747Z,48.99
2022-07-26T05:47:26.511Z,49.42
2022-07-26T05:49:55.207Z,49.54
2022-07-26T05:52:23.346Z,49.64
2022-07-26T05:54:52.382Z,49.62
2022-07-26T05:57:20.116Z,49.96
2022-07-26T05:59:47.840Z,50.07
2022-07-26T06:02:15.687Z,50.25
2022-07-26T06:04:43.555Z,49.85
2022-07-26T06:07:15.063Z,50.03
2022-07-26T06:09:42.779Z,50.00
2022-07-26T06:12:11.921Z,50.12
2022-07-26T06:14:39.625Z,49.60
2022-07-26T06:17:07.488Z,49.75
2022-07-26T06:19:35.701Z,49.49
2022-07-26T06:22:03.406Z,49.53
2022-07-26T06:24:31.125Z,49.36
2022-07-26T06:27:04.684Z,48.96
2022-07-26T06:29:34.531Z,49.19
2022-07-26T06:32:02.337Z,49.48
2022-07-26T06:34:30.146Z,49.44
2022-07-26T06:36:57.851Z,49.59
2022-07-26T06:39:25.583Z,49.28
2022-07-26T06:41:53.284Z,49.09
2022-07-26T06:44:21.003Z,49.08
2022-07-26T06:46:50.046Z,48.98
2022-07-26T06:49:22.228Z,48.40
2022-07-26T06:51:50.504Z,48.31
2022-07-26T06:54:18.231Z,47.98
2022-07-26T06:56:45.930Z,48.18
2022-07-26T06:59:13.715Z,47.84
2022-07-26T07:01:57.617Z,47.97
2022-07-26T07:04:29.764Z,47.98
2022-07-26T07:07:02.339Z,47.90
2022-07-26T07:09:33.356Z,47.58
2022-07-26T07:12:08.297Z,47.79
2022-07-26T07:14:38.391Z,47.40
2022-07-26T07:17:10.436Z,47.46
2022-07-26T07:19:42.199Z,47.24
2022-07-26T07:22:12.332Z,47.29
2022-07-26T07:24:40.494Z,47.06
2022-07-26T07:27:08.247Z,47.20
2022-07-26T07:29:35.988Z,47.10
2022-07-26T07:32:03.873Z,47.03
2022-07-26T07:34:31.675Z,47.17
2022-07-26T07:37:01.576Z,47.00
2022-07-26T07:39:34.927Z,47.15
2022-07-26T07:42:06.573Z,47.21
2022-07-26T07:44:34.314Z,47.08
2022-07-26T07:47:02.126Z,47.07
2022-07-26T07:49:30.045Z,47.10
2022-07-26T07:51:57.785Z,46.99
2022-07-26T07:54:26.868Z,47.06
2022-07-26T07:56:56.318Z,46.92
2022-07-26T07:59:24.071Z,47.04
2022-07-26T08:01:51.848Z,47.06
2022-07-26T08:04:19.857Z,46.69
2022-07-26T08:06:50.454Z,46.87
2022-07-26T08:09:19.287Z,46.74
2022-07-26T08:11:50.759Z,46.90
2022-07-26T08:14:19.042Z,46.63
2022-07-26T08:16:47.200Z,46.62
2022-07-26T08:19:15.441Z,46.63
2022-07-26T08:21:46.055Z,46.61
2022-07-26T08:24:14.666Z,46.72
2022-07-26T08:26:42.373Z,46.57
2022-07-26T08:29:11.966Z,46.67
2022-07-26T08:31:40.028Z,46.90
2022-07-26T08:34:07.806Z,46.79
2022-07-26T08:36:35.506Z,46.95
2022-07-26T08:39:03.246Z,46.49
2022-07-26T08:41:31.510Z,46.99
2022-07-26T08:44:06.061Z,47.08
2022-07-26T08:46:35.965Z,47.40
2022-07-26T08:49:03.615Z,47.31
2022-07-26T08:51:31.404Z,47.28
2022-07-26T08:54:05.451Z,47.15
2022-07-26T08:56:34.918Z,47.20
2022-07-26T08:59:05.498Z,47.13
2022-07-26T09:01:34.935Z,47.09
2022-07-26T09:04:30.937Z,47.28
2022-07-26T09:07:01.146Z,47.29
2022-07-26T09:09:28.971Z,47.16
2022-07-26T09:11:56.947Z,47.25
2022-07-26T09:14:24.809Z,47.26
2022-07-26T09:17:00.402Z,47.04
2022-07-26T09:19:28.327Z,47.08
2022-07-26T09:21:57.862Z,47.16
2022-07-26T09:24:32.524Z,47.10
2022-07-26T09:27:00.817Z,46.98
2022-07-26T09:29:29.536Z,47.10
2022-07-26T09:32:12.210Z,46.89
2022-07-26T09:34:52.031Z,46.76
2022-07-26T09:37:20.605Z,46.88
2022-07-26T09:39:55.040Z,46.78
2022-07-26T09:42:29.315Z,46.74
2022-07-26T09:44:57.969Z,46.71
2022-07-26T09:47:36.233Z,46.60
2022-07-26T09:50:14.370Z,46.58
2022-07-26T09:52:42.238Z,46.65
2022-07-26T09:55:13.182Z,46.60
2022-07-26T09:57:40.906Z,46.76
2022-07-26T10:00:09.875Z,46.78
2022-07-26T10:02:38.955Z,46.38
2022-07-26T10:05:07.646Z,46.53
2022-07-26T10:07:35.388Z,46.35
2022-07-26T10:10:04.996Z,46.42
2022-07-26T10:12:33.509Z,46.62
2022-07-26T10:15:01.264Z,46.54
2022-07-26T10:17:49.486Z,46.67
2022-07-26T10:20:45.493Z,46.43
2022-07-26T10:23:38.547Z,46.61
2022-07-26T10:26:07.136Z,46.76
2022-07-26T10:28:38.032Z,46.96
2022-07-26T10:31:38.992Z,47.05
2022-07-26T10:34:08.263Z,47.05
2022-07-26T10:36:36.989Z,47.21
2022-07-26T10:39:10.051Z,47.41
2022-07-26T10:41:39.500Z,47.26
2022-07-26T10:44:21.494Z,47.17
2022-07-26T10:46:56.494Z,47.38
2022-07-26T10:49:30.274Z,47.34
2022-07-26T10:52:16.820Z,47.39
2022-07-26T10:55:11.017Z,47.46
2022-07-26T10:57:39.993Z,47.55
2022-07-26T11:00:26.885Z,47.36
2022-07-26T11:02:58.714Z,47.51
2022-07-26T11:05:31.171Z,47.53
2022-07-26T11:08:08.140Z,47.70
2022-07-26T11:10:36.917Z,47.63
2022-07-26T11:13:10.572Z,48.00
2022-07-26T11:15:39.217Z,47.59
2022-07-26T11:18:11.381Z,47.83
2022-07-26T11:20:40.574Z,48.07
2022-07-26T11:23:21.380Z,47.92
2022-07-26T11:26:02.429Z,48.22
2022-07-26T11:28:30.273Z,48.25
2022-07-26T11:30:58.481Z,48.12
2022-07-26T11:33:38.510Z,48.12
2022-07-26T11:36:07.683Z,48.13
2022-07-26T11:38:48.551Z,48.44
2022-07-26T11:41:16.552Z,48.19
2022-07-26T11:43:44.264Z,48.09
2022-07-26T11:46:12.019Z,48.30
2022-07-26T11:48:40.230Z,48.17
2022-07-26T11:51:13.189Z,48.28
2022-07-26T11:53:40.945Z,48.53
2022-07-26T11:56:27.063Z,48.24
2022-07-26T11:58:56.507Z,48.37
2022-07-26T12:01:25.354Z,48.30
2022-07-26T12:03:54.066Z,48.68
2022-07-26T12:08:46.161Z,48.57
2022-07-26T12:11:15.516Z,48.52
2022-07-26T12:13:55.519Z,48.63
2022-07-26T12:16:37.895Z,48.71
2022-07-26T12:19:05.636Z,48.47
2022-07-26T12:21:43.871Z,48.59
2022-07-26T12:24:14.174Z,48.83
2022-07-26T12:26:42.122Z,48.63
2022-07-26T12:29:33.059Z,48.83
2022-07-26T12:32:10.287Z,48.68
2022-07-26T12:34:40.260Z,48.77
2022-07-26T12:37:17.818Z,49.05
2022-07-26T12:40:02.969Z,48.59
2022-07-26T12:42:33.480Z,49.06
2022-07-26T12:45:02.825Z,48.92
2022-07-26T12:47:30.634Z,48.96
2022-07-26T12:49:58.376Z,48.83
2022-07-26T12:52:26.093Z,48.60
2022-07-26T12:54:54.177Z,48.87
2022-07-26T12:57:23.291Z,49.19
2022-07-26T12:59:51.049Z,48.92
2022-07-26T13:02:18.945Z,48.82
2022-07-26T13:04:46.892Z,48.89
2022-07-26T13:07:14.798Z,48.84
2022-07-26T13:09:42.580Z,48.69
2022-07-26T13:12:10.899Z,49.07
2022-07-26T13:14:40.212Z,49.11
2022-07-26T13:17:08.515Z,49.26
2022-07-26T13:19:36.406Z,49.12
2022-07-26T13:22:04.963Z,49.23
2022-07-26T13:24:33.521Z,49.31
2022-07-26T13:27:01.298Z,49.70
2022-07-26T13:29:29.848Z,49.52
2022-07-26T13:32:00.257Z,50.00
2022-07-26T13:34:33.009Z,49.92
2022-07-26T13:37:02.593Z,49.80
2022-07-26T13:39:36.260Z,49.69
2022-07-26T13:42:04.008Z,49.85
2022-07-26T13:44:31.736Z,50.11
2022-07-26T13:47:02.192Z,50.37
2022-07-26T13:49:30.998Z,50.54
2022-07-26T13:51:58.815Z,50.34
2022-07-26T13:54:27.635Z,50.57
2022-07-26T13:56:55.853Z,50.55
2022-07-26T13:59:23.606Z,50.48
2022-07-26T14:01:51.448Z,50.58
2022-07-26T14:04:20.627Z,50.69
2022-07-26T14:06:48.517Z,50.67
2022-07-26T14:09:16.384Z,50.69
2022-07-26T14:11:44.203Z,50.58
2022-07-26T14:14:12.419Z,50.69
2022-07-26T14:16:40.772Z,50.96
2022-07-26T14:19:08.604Z,51.15
2022-07-26T14:21:46.954Z,51.35
2022-07-26T14:24:18.986Z,51.43
2022-07-26T14:26:48.816Z,51.31
2022-07-26T14:29:16.640Z,51.65
2022-07-26T14:31:45.551Z,51.55
2022-07-26T14:34:14.459Z,51.61
2022-07-26T14:36:43.870Z,51.72
2022-07-26T14:39:11.678Z,51.74
2022-07-26T14:41:39.554Z,51.86
2022-07-26T14:44:07.559Z,51.86
2022-07-26T14:46:35.552Z,51.50
2022-07-26T14:49:03.367Z,51.59
2022-07-26T14:51:31.250Z,51.97
2022-07-26T14:54:00.344Z,51.72
2022-07-26T14:56:28.093Z,51.10
2022-07-26T14:58:55.819Z,51.44
2022-07-26T15:01:23.851Z,51.55
2022-07-26T15:03:51.733Z,51.33
2022-07-26T15:06:19.514Z,51.12
2022-07-26T15:08:47.272Z,51.19
2022-07-26T15:11:16.928Z,51.28
2022-07-26T15:13:44.690Z,51.25
2022-07-26T15:16:13.855Z,51.27
2022-07-26T15:18:41.669Z,51.29
2022-07-26T15:21:09.492Z,51.49
2022-07-26T15:23:39.278Z,51.16
2022-07-26T15:26:07.040Z,51.24
2022-07-26T15:28:36.131Z,51.22
2022-07-26T15:31:03.888Z,51.55
2022-07-26T15:33:32.488Z,51.38
2022-07-26T15:36:03.979Z,51.39
2022-07-26T15:38:33.575Z,51.56
2022-07-26T15:41:01.317Z,51.48
2022-07-26T15:43:48.910Z,51.47
2022-07-26T15:46:19.669Z,51.19
2022-07-26T15:48:49.543Z,51.46
2022-07-26T15:51:17.494Z,51.41
2022-07-26T15:53:46.695Z,51.24
2022-07-26T15:56:14.725Z,51.17
2022-07-26T15:58:42.475Z,51.29
2022-07-26T16:01:12.829Z,51.15
2022-07-26T16:03:41.974Z,51.48
2022-07-26T16:06:09.695Z,51.30
2022-07-26T16:08:52.727Z,51.45
2022-07-26T16:11:25.468Z,51.39
2022-07-26T16:13:53.184Z,50.93
2022-07-26T16:16:30.230Z,51.30
2022-07-26T16:18:59.563Z,51.01
2022-07-26T16:21:27.301Z,50.88
2022-07-26T16:23:55.036Z,51.04
2022-07-26T16:26:23.508Z,50.78
2022-07-26T16:28:51.249Z,50.58
2022-07-26T16:31:19.076Z,50.65
2022-07-26T16:33:46.987Z,50.72
2022-07-26T16:36:17.070Z,51.02
2022-07-26T16:38:44.828Z,50.92
2022-07-26T16:41:12.833Z,50.93
2022-07-26T16:43:40.625Z,50.67
2022-07-26T16:46:08.361Z,50.83
2022-07-26T16:48:36.125Z,50.68
2022-07-26T16:51:04.012Z,50.82
2022-07-26T16:53:33.204Z,50.67
2022-07-26T16:56:00.952Z,50.84
2022-07-26T16:58:28.696Z,50.88
2022-07-26T17:00:56.597Z,50.87
2022-07-26T17:03:24.689Z,50.97
2022-07-26T17:05:52.571Z,50.84
2022-07-26T17:08:20.324Z,50.72
2022-07-26T17:10:49.392Z,50.74
2022-07-26T17:13:17.151Z,50.74
2022-07-26T17:15:44.952Z,50.71
2022-07-26T17:18:13.190Z,50.66
2022-07-26T17:20:41.098Z,51.00
2022-07-26T17:23:09.095Z,50.87
2022-07-26T17:25:36.839Z,50.63
2022-07-26T17:28:06.571Z,51.06
2022-07-26T17:30:34.343Z,50.92
2022-07-26T17:33:02.141Z,50.59
2022-07-26T17:35:29.933Z,50.65
2022-07-26T17:37:57.697Z,50.97
2022-07-26T17:40:25.671Z,50.64
2022-07-26T17:42:53.841Z,50.59
2022-07-26T17:45:23.048Z,50.96
2022-07-26T17:47:50.802Z,50.60
2022-07-26T17:53:06.291Z,50.54
2022-07-26T17:55:34.367Z,50.64
2022-07-26T17:58:02.120Z,50.71
2022-07-26T18:00:31.210Z,50.93
2022-07-26T18:02:58.977Z,50.87
2022-07-26T18:05:34.024Z,50.72
2022-07-26T18:08:03.811Z,50.94
2022-07-26T18:10:31.545Z,50.51
2022-07-26T18:12:59.331Z,50.79
2022-07-26T18:15:27.063Z,50.70
2022-07-26T18:17:56.213Z,50.87
2022-07-26T18:20:24.091Z,50.89
2022-07-26T18:22:53.705Z,50.82
2022-07-26T18:25:21.646Z,50.87
2022-07-26T18:27:49.837Z,51.05
2022-07-26T18:30:17.560Z,50.95
2022-07-26T18:32:45.394Z,50.90
2022-07-26T18:35:14.512Z,51.11
2022-07-26T18:37:42.264Z,50.86
2022-07-26T18:40:10.381Z,51.20
2022-07-26T18:42:38.133Z,51.34
2022-07-26T18:45:06.941Z,51.11
2022-07-26T18:47:34.670Z,51.21
2022-07-26T18:50:02.422Z,51.37
2022-07-26T18:52:32.789Z,51.47
2022-07-26T18:55:02.388Z,51.26
2022-07-26T18:57:30.213Z,51.51
2022-07-26T18:59:57.924Z,51.36
2022-07-26T19:02:25.709Z,51.77
2022-07-26T19:04:53.493Z,51.66
2022-07-26T19:07:21.255Z,51.86
2022-07-26T19:09:52.672Z,51.95
2022-07-26T19:12:24.211Z,51.81
2022-07-26T19:14:51.951Z,51.54
2022-07-26T19:17:20.700Z,51.86
2022-07-26T19:19:48.416Z,51.66
2022-07-26T19:22:16.158Z,51.92
2022-07-26T19:24:43.875Z,51.78
2022-07-26T19:27:14.974Z,51.86
2022-07-26T19:29:42.816Z,51.90
2022-07-26T19:32:10.561Z,51.87
2022-07-26T19:34:38.277Z,51.72
2022-07-26T19:37:06.015Z,51.77
2022-07-26T19:39:33.716Z,51.56
2022-07-26T19:42:01.512Z,52.09
2022-07-26T19:44:30.643Z,51.81
2022-07-26T19:46:58.373Z,52.02
2022-07-26T19:49:26.206Z,51.60
2022-07-26T19:51:54.001Z,51.90
2022-07-26T19:54:22.897Z,51.65
2022-07-26T19:56:50.629Z,51.74
2022-07-26T19:59:23.301Z,51.56
2022-07-26T20:01:56.572Z,51.88
2022-07-26T20:04:26.068Z,51.73
2022-07-26T20:06:53.816Z,51.69
2022-07-26T20:09:21.533Z,51.79
2022-07-26T20:11:51.807Z,51.77
2022-07-26T20:14:19.639Z,51.87
2022-07-26T20:16:48.339Z,51.88
2022-07-26T20:19:19.581Z,51.45
2022-07-26T20:21:47.381Z,51.52
2022-07-26T20:24:15.721Z,51.50
2022-07-26T20:26:43.449Z,51.49
2022-07-26T20:29:12.389Z,51.76
2022-07-26T20:31:40.259Z,51.33
2022-07-26T20:34:07.995Z,51.79
2022-07-26T20:36:37.052Z,51.23
2022-07-26T20:39:05.044Z,51.20
2022-07-26T20:41:33.945Z,51.19
2022-07-26T20:44:01.899Z,51.21
2022-07-26T20:46:29.684Z,51.67
2022-07-26T20:48:57.555Z,51.15
2022-07-26T20:51:25.424Z,51.11
2022-07-26T20:53:54.497Z,51.19
2022-07-26T20:56:22.211Z,51.22
2022-07-26T20:58:49.951Z,51.03
2022-07-26T21:01:17.697Z,51.06
2022-07-26T21:03:45.451Z,51.44
2022-07-26T21:06:13.198Z,51.34
2022-07-26T21:08:41.984Z,51.28
2022-07-26T21:11:11.048Z,50.94
2022-07-26T21:13:38.787Z,51.10
2022-07-26T21:16:09.711Z,50.79
2022-07-26T21:18:38.401Z,50.57
2022-07-26T21:21:06.153Z,50.41
2022-07-26T21:23:33.901Z,50.13
2022-07-26T21:26:01.660Z,50.09
2022-07-26T21:28:30.734Z,50.33
2022-07-26T21:30:58.447Z,50.02
2022-07-26T21:33:26.197Z,50.21
2022-07-26T21:35:53.926Z,49.58
2022-07-26T21:38:21.669Z,49.56
2022-07-26T21:40:49.500Z,49.49
2022-07-26T21:43:17.334Z,49.27
2022-07-26T21:45:46.398Z,48.96
2022-07-26T21:48:14.435Z,49.51
2022-07-26T21:50:45.531Z,49.89
2022-07-26T21:53:13.603Z,50.03
2022-07-26T21:55:41.331Z,50.12
2022-07-26T21:58:09.100Z,49.95
2022-07-26T22:00:37.166Z,49.83
2022-07-26T22:03:06.267Z,49.82
2022-07-26T22:05:38.104Z,49.89
2022-07-26T22:08:09.873Z,50.02
2022-07-26T22:10:43.945Z,49.92
2022-07-26T22:13:12.503Z,49.92
2022-07-26T22:15:40.210Z,49.94
2022-07-26T22:18:09.964Z,50.06
2022-07-26T22:20:37.922Z,49.81
2022-07-26T22:23:07.122Z,50.05
2022-07-26T22:25:35.244Z,49.82
2022-07-26T22:28:03.065Z,49.92
2022-07-26T22:30:30.818Z,49.97
2022-07-26T22:32:58.901Z,49.85
2022-07-26T22:35:33.501Z,49.86
2022-07-26T22:38:04.941Z,49.53
2022-07-26T22:40:32.926Z,49.79
2022-07-26T22:43:00.708Z,49.56
2022-07-26T22:45:28.831Z,49.72
2022-07-26T22:47:56.935Z,49.71
2022-07-26T22:50:25.116Z,49.71
2022-07-26T22:52:54.253Z,49.79
2022-07-26T22:55:21.993Z,49.41
2022-07-26T22:57:49.741Z,49.36
2022-07-26T23:00:18.256Z,49.54
2022-07-26T23:02:46.120Z,49.45
2022-07-26T23:05:15.803Z,49.58
2022-07-26T23:07:44.826Z,49.52
2022-07-26T23:10:17.358Z,49.32
2022-07-26T23:12:45.105Z,49.61
2022-07-26T23:15:12.997Z,49.50
2022-07-26T23:17:40.750Z,49.16
2022-07-26T23:20:10.131Z,49.56
2022-07-26T23:22:38.283Z,49.44
2022-07-26T23:25:06.919Z,49.37
2022-07-26T23:27:36.089Z,49.27
2022-07-26T23:30:03.851Z,49.05
2022-07-26T23:32:31.605Z,49.06
2022-07-26T23:34:59.315Z,48.94
2022-07-26T23:37:27.635Z,48.86
2022-07-26T23:39:55.350Z,49.37
2022-07-26T23:42:23.092Z,49.22
2022-07-26T23:44:52.157Z,48.85
2022-07-26T23:47:19.918Z,48.85
2022-07-26T23:49:47.632Z,49.14
2022-07-26T23:52:15.470Z,49.16
2022-07-26T23:54:43.197Z,49.04
2022-07-26T23:57:10.927Z,48.78
2022-07-26T23:59:38.656Z,48.92
